Longue-Pointe-de-Mingan, Quebec

12:05 AM EDT on August 29, 2014 (GMT -0400)
Havre Saint-Pierre | Change Station
CLOSE
Current Station
Airport
Location: Havre-Saint-Pierre,
Elevation: 121 ft
Nearby Weather Stations

Elev 121 ft 50.28 °N, 63.61 °W | Updated 1 hour ago

Clear
Clear
46 °F
Feels Like 42 °F
N
8
Wind Variable Wind from North

Today is forecast to be nearly the same temperature as yesterday.

Today
High -- | Low -- °F
--% Chance of Precip.
Yesterday
High -- | Low -- °F
Precip. -- in
5:26 AM 7:07 PM
Waxing Crescent, 11% visible
Pressure 29.95 in
Visibility 9.0 miles
Clouds Clear
Windchill 42 °F
Dew Point 43 °F
Humidity 87%
Rainfall 0.00 in
Snow Depth Not available.
UV 0 out of 12
Pollen Not available.
Air Quality Not available.
Flu Activity Not available.
METAR CYGV 290300Z AUTO 35007KT 9SM CLR 08/06 A2994 RMK SLP141

More Conditions Fewer Conditions

Pressure 29.95 in
Visibility 9.0 miles
Clouds Clear
Windchill 42 °F
Dew Point 43 °F
Humidity 87%
Rainfall 0.00 in
Snow Depth Not available.
UV 0 out of 12
Pollen Not available.
Air Quality Not available.
Flu Activity Not available.
METAR CYGV 290300Z AUTO 35007KT 9SM CLR 08/06 A2994 RMK SLP141

More Conditions Fewer Conditions

10-Day Weather Forecast

Almanac

Astronomy

Aug. 29, 2014 Rise Set
Actual Time 5:26 AM EDT 7:07 PM EDT
Civil Twilight 4:52 AM EDT 7:41 PM EDT
Nautical Twilight 4:10 AM EDT 8:23 PM EDT
Astronomical Twilight 3:24 AM EDT 9:09 PM EDT
Moon 9:39 AM EDT 8:33 PM EDT
Length of Visible Light 14h 49m
Length of Day
13h 40m
Tomorrow will be 3m 38s shorter.
Waxing Crescent, 11% of the Moon is Illuminated
Today
Waxing Crescent
Sep 2
First Quarter
Sep 8
Full
Sep 15
Last Quarter
Sep 24
New

Yesterday's Extremes

Country Highs Country Lows

Community

WunderPhotos

Upload Photos

1,748,183 photos uploaded!

Nearby

Snow Depth

Not available.

Earthquake Activity

City Distance Mag. Time & Date
No recent earthquake activity has been reported nearby.
Minimum magnitude displayed is 2.5.

Coastal Water Temperatures

Place Temperature
No Stations Reporting

Nearby Weather Stations